Meteorología y climatología de Navarra
Datos de la estación - Meteo Navarra

Estación de Doneztebe-Santesteban GN

Altitud 125 m.


Datos desde el 09/11/2018 hasta el 10/11/2018 en horario solar
Los datos son PROVISIONALES

Anterior Página 1 de 1 Siguiente Descargar: Formato para Excel 2000 o superior   Formato csv   Formato para OpenOffice Calc
Fecha Temperatura Humedad relativa Radiación global Insolación Precipitación Velocidad viento 10 m Velocidad viento 10 m Dirección viento 10 m
ºC % W/m² s l/m² m/s km/h º
09/11/2018 0:00 10.0 98 0.0 0 0.6 0.6 2.0 105
09/11/2018 0:10 9.9 98 0.0 0 0.3 0.8 3.0 221
09/11/2018 0:20 9.9 99 0.0 0 0.3 0.4 1.6 311
09/11/2018 0:30 9.9 99 0.0 0 0.3 0.1 0.5 255
09/11/2018 0:40 9.9 99 0.0 0 0.5 0.3 1.2 133
09/11/2018 0:50 9.9 99 0.0 0 0.3 0.8 2.7 145
09/11/2018 1:00 9.9 99 0.0 0 0.3 0.8 3.0 155
09/11/2018 1:10 9.9 99 0.0 0 0.5 0.1 0.5 224
09/11/2018 1:20 9.9 99 0.0 0 0.2 0.6 2.3 103
09/11/2018 1:30 9.9 99 0.0 0 0.0 0.7 2.5 139
09/11/2018 1:40 9.8 99 0.0 0 0.0 0.8 2.9 187
09/11/2018 1:50 9.8 99 0.0 0 0.0 0.1 0.2 341
09/11/2018 2:00 9.8 99 0.0 0 0.0 0.1 0.2 180
09/11/2018 2:10 9.8 99 0.0 0 0.0 0.3 0.9 260
09/11/2018 2:20 9.8 99 0.0 0 0.0 0.2 0.6 199
09/11/2018 2:30 9.8 99 0.0 0 0.0 0.1 0.3 113
09/11/2018 2:40 9.8 99 0.0 0 0.0 0.0 0.0 0
09/11/2018 2:50 9.8 99 0.0 0 0.0 0.5 1.7 252
09/11/2018 3:00 9.8 99 0.0 0 0.0 0.4 1.3 281
09/11/2018 3:10 9.8 99 0.0 0 0.3 0.0 0.0 0
09/11/2018 3:20 9.8 99 0.0 0 0.1 0.1 0.3 8
09/11/2018 3:30 9.8 99 0.0 0 0.0 0.0 0.1 8
09/11/2018 3:40 9.7 100 0.0 0 0.0 0.0 0.1 19
09/11/2018 3:50 9.7 100 0.0 0 0.0 0.2 0.8 189
09/11/2018 4:00 9.7 100 0.0 0 0.0 0.1 0.5 94
09/11/2018 4:10 9.8 100 0.0 0 0.1 0.4 1.6 128
09/11/2018 4:20 9.8 100 0.0 0 0.0 0.1 0.2 208
09/11/2018 4:30 9.8 100 0.0 0 0.2 0.3 1.2 125
09/11/2018 4:40 9.8 100 0.0 0 0.1 0.2 0.7 143
09/11/2018 4:50 9.8 100 0.0 0 0.1 0.6 2.1 153
09/11/2018 5:00 9.8 100 0.0 0 0.0 0.9 3.3 102
09/11/2018 5:10 9.8 100 0.0 0 0.0 0.3 0.9 263
09/11/2018 5:20 9.8 100 0.0 0 0.1 0.1 0.5 85
09/11/2018 5:30 9.7 100 0.0 0 0.0 0.2 0.7 198
09/11/2018 5:40 9.7 100 0.0 0 0.0 0.0 0.0 304
09/11/2018 5:50 9.6 100 0.0 0 0.0 0.1 0.4 156
09/11/2018 6:00 9.6 100 0.0 0 0.0 0.1 0.3 191
09/11/2018 6:10 9.6 100 0.0 0 0.0 0.1 0.4 122
09/11/2018 6:20 9.6 100 0.0 0 0.0 0.1 0.5 128
09/11/2018 6:30 9.6 100 0.0 0 0.0 0.8 2.9 143
09/11/2018 6:40 9.6 100 0.0 0 0.0 1.1 4.0 135
09/11/2018 6:50 9.6 100 0.0 0 0.0 0.9 3.1 135
09/11/2018 7:00 9.6 100 0.0 0 0.0 0.1 0.2 117
09/11/2018 7:10 9.5 100 0.0 0 0.0 0.4 1.4 260
09/11/2018 7:20 9.5 100 0.0 0 0.0 0.6 2.0 137
09/11/2018 7:30 9.5 100 0.6 0 0.0 0.4 1.5 162
09/11/2018 7:40 9.6 100 18.5 0 0.0 0.3 1.1 200
09/11/2018 7:50 9.7 100 25.1 0 0.0 0.5 1.9 168
09/11/2018 8:00 9.7 100 30.7 0 0.0 0.2 0.5 335
09/11/2018 8:10 9.9 100 31.8 0 0.0 0.1 0.4 208
09/11/2018 8:20 9.8 100 36.3 0 0.0 0.3 0.9 113
09/11/2018 8:30 9.9 100 46.4 0 0.0 0.6 2.0 126
09/11/2018 8:40 10.0 100 85.3 0 0.0 0.8 2.7 151
09/11/2018 8:50 10.0 100 52.5 0 0.0 0.3 1.1 173
09/11/2018 9:00 10.0 100 47.7 0 0.0 0.1 0.3 232
09/11/2018 9:10 10.1 100 58.2 0 0.0 0.1 0.5 118
09/11/2018 9:20 10.2 100 89.7 0 0.0 0.2 0.6 137
09/11/2018 9:30 10.5 100 106.9 0 0.0 0.3 1.2 142
09/11/2018 9:40 10.6 100 108.0 0 0.0 0.3 1.0 329
09/11/2018 9:50 10.6 99 105.8 0 0.1 0.5 1.7 311
09/11/2018 10:00 10.6 99 117.3 0 0.0 0.4 1.4 304
09/11/2018 10:10 10.4 97 168.8 0 0.0 0.4 1.3 359
09/11/2018 10:20 10.7 96 222.4 58 0.0 0.5 1.7 57
09/11/2018 10:30 11.1 93 252.6 358 0.0 0.7 2.4 73
09/11/2018 10:40 11.5 88 439.2 600 0.0 0.3 1.0 42
09/11/2018 10:50 12.3 84 367.2 560 0.0 0.3 1.2 86
09/11/2018 11:00 13.0 86 457.8 600 0.0 0.7 2.6 145
09/11/2018 11:10 13.6 84 447.9 490 0.0 1.1 4.1 136
09/11/2018 11:20 13.7 79 532.2 516 0.0 0.6 2.2 187
09/11/2018 11:30 14.2 74 565.9 544 0.0 0.3 1.2 102
09/11/2018 11:40 15.0 69 678.7 600 0.0 0.4 1.4 185
09/11/2018 11:50 15.3 64 698.8 600 0.0 0.8 3.0 224
09/11/2018 12:00 15.4 61 505.8 600 0.0 1.2 4.3 200
09/11/2018 12:10 15.9 58 716.9 600 0.0 0.7 2.4 194
09/11/2018 12:20 16.3 58 660.3 600 0.0 0.8 2.7 167
09/11/2018 12:30 16.0 55 382.8 300 0.0 0.9 3.1 209
09/11/2018 12:40 15.4 57 489.2 482 0.0 0.6 2.0 170
09/11/2018 12:50 16.6 51 582.8 600 0.0 0.6 2.0 298
09/11/2018 13:00 16.2 54 495.2 586 0.0 0.6 2.2 323
09/11/2018 13:10 16.1 55 277.5 186 0.0 0.7 2.5 321
09/11/2018 13:20 15.3 63 214.8 36 0.0 0.3 1.0 213
09/11/2018 13:30 15.7 59 332.6 534 0.0 1.0 3.7 170
09/11/2018 13:40 15.5 57 283.7 396 0.0 1.5 5.4 192
09/11/2018 13:50 16.0 56 453.6 600 0.0 0.8 2.8 109
09/11/2018 14:00 16.7 55 309.1 366 0.0 1.3 4.8 121
09/11/2018 14:10 15.9 55 251.6 538 0.0 0.6 2.2 162
09/11/2018 14:20 16.2 57 323.5 600 0.0 1.1 3.9 117
09/11/2018 14:30 16.5 54 357.3 592 0.0 1.3 4.8 138
09/11/2018 14:40 16.2 53 317.7 600 0.0 2.2 7.8 137
09/11/2018 14:50 16.0 55 288.4 600 0.0 1.7 6.3 138
09/11/2018 15:00 15.9 58 262.6 600 0.0 1.3 4.5 158
09/11/2018 15:10 15.9 52 220.5 600 0.0 2.0 7.0 205
09/11/2018 15:20 15.9 52 206.8 600 0.0 1.5 5.4 279
09/11/2018 15:30 15.7 55 188.6 600 0.0 1.9 6.7 294
09/11/2018 15:40 15.5 54 118.4 410 0.0 0.6 2.1 250
09/11/2018 15:50 15.1 55 57.7 60 0.0 1.7 6.3 309
09/11/2018 16:00 14.6 56 46.6 0 0.0 1.3 4.5 300
09/11/2018 16:10 14.6 54 40.8 0 0.0 1.5 5.3 338
09/11/2018 16:20 14.2 57 31.7 0 0.0 1.4 5.2 292
09/11/2018 16:30 14.2 51 13.0 0 0.0 1.4 4.9 326
09/11/2018 16:40 14.1 51 0.0 0 0.0 1.6 5.8 312
09/11/2018 16:50 13.7 51 0.0 0 0.0 1.5 5.5 296
09/11/2018 17:00 13.5 50 0.0 0 0.0 2.0 7.2 321
09/11/2018 17:10 13.4 52 0.0 0 0.0 1.5 5.3 280
09/11/2018 17:20 13.2 55 0.0 0 0.0 0.8 3.0 134
09/11/2018 17:30 12.5 56 0.0 0 0.0 1.5 5.2 288
09/11/2018 17:40 12.2 60 0.0 0 0.0 0.9 3.2 77
09/11/2018 17:50 12.1 59 0.0 0 0.0 1.1 4.1 2
09/11/2018 18:00 11.2 68 0.0 0 0.0 0.7 2.5 313
09/11/2018 18:10 12.8 56 0.0 0 0.0 1.1 3.8 336
09/11/2018 18:20 13.6 54 0.0 0 0.0 1.2 4.3 43
09/11/2018 18:30 14.0 52 0.0 0 0.0 1.8 6.4 346
09/11/2018 18:40 13.8 53 0.0 0 0.0 1.3 4.5 339
09/11/2018 18:50 13.9 53 0.0 0 0.0 1.9 6.8 293
09/11/2018 19:00 14.0 53 0.0 0 0.0 1.3 4.8 313
09/11/2018 19:10 14.0 53 0.0 0 0.0 2.1 7.5 302
09/11/2018 19:20 13.9 55 0.0 0 0.0 2.8 9.9 305
09/11/2018 19:30 14.0 53 0.0 0 0.0 2.8 10.2 303
09/11/2018 19:40 14.0 55 0.0 0 0.0 2.4 8.6 286
09/11/2018 19:50 14.0 55 0.0 0 0.0 2.5 9.1 299
09/11/2018 20:00 14.0 55 0.0 0 0.0 2.4 8.7 317
09/11/2018 20:10 14.0 55 0.0 0 0.0 1.6 5.7 340
09/11/2018 20:20 13.7 58 0.0 0 0.0 1.5 5.4 2
09/11/2018 20:30 13.8 58 0.0 0 0.0 1.5 5.4 11
09/11/2018 20:40 13.7 60 0.0 0 0.0 1.3 4.5 289
09/11/2018 20:50 13.5 60 0.0 0 0.0 1.3 4.6 263
09/11/2018 21:00 13.9 61 0.0 0 0.0 0.9 3.3 31
09/11/2018 21:10 13.5 62 0.0 0 0.0 1.6 5.8 11
09/11/2018 21:20 13.7 62 0.0 0 0.0 1.8 6.6 334
09/11/2018 21:30 14.1 60 0.0 0 0.0 1.3 4.6 315
09/11/2018 21:40 13.9 62 0.0 0 0.0 1.4 5.2 67
09/11/2018 21:50 14.0 63 0.0 0 0.0 1.7 6.0 139
09/11/2018 22:00 14.2 60 0.0 0 0.0 2.3 8.3 342
09/11/2018 22:10 14.2 59 0.0 0 0.0 2.4 8.7 348
09/11/2018 22:20 14.1 59 0.0 0 0.0 2.5 8.9 279
09/11/2018 22:30 13.9 60 0.0 0 0.0 2.2 7.9 326
09/11/2018 22:40 13.9 58 0.0 0 0.0 1.9 6.9 218
09/11/2018 22:50 13.9 58 0.0 0 0.0 2.5 9.1 318
09/11/2018 23:00 13.8 57 0.0 0 0.0 3.1 11.2 324
09/11/2018 23:10 13.8 56 0.0 0 0.0 2.4 8.6 325
09/11/2018 23:20 13.8 56 0.0 0 0.0 2.2 7.8 349
09/11/2018 23:30 13.6 58 0.0 0 0.0 1.2 4.5 8
09/11/2018 23:40 13.5 57 0.0 0 0.0 1.7 6.1 287
09/11/2018 23:50 13.5 57 0.0 0 0.0 1.8 6.4 322
Anterior Página 1 de 1 Siguiente

NOTA: Tipo de datos según el color:
   - Valores diarios o 10 minutos correctos
   - Valores diarios calculados a partir de un número de datos 10 minutos menor que 144 y mayor que 120, o de un número de datos semihorarios menor que 48 y mayor que 40 (caso de las estaciones de Riegos de Navarra y del MARM)
   - Valores diez minutos estimados


Contacto        Enlaces        Aviso legal